<?xml version="1.0" encoding="UTF-8" standalone="no" ?>
<gpx xmlns="http://www.topografix.com/GPX/1/1" xmlns:xsi="http://www.w3.org/2001/XMLSchema-instance" xsi:schemaLocation="http://www.topografix.com/GPX/1/1 http://www.topografix.com/GPX/1/1/gpx.xsd" version="1.1" creator="VisuGPX - https://www.visugpx.com">
  <metadata>
    <name>GR20 20150706 Etape 14 Asinau - Paliri</name>
    <desc><![CDATA[GR20 Etape 14
Météo ensoleillée]]></desc>
  </metadata>
  <trk>
    <name><![CDATA[ACTIVE LOG124023]]></name>
    <trkseg>
      <trkpt lat="41.79542" lon="9.22837">
        <ele>1188.243</ele>
        <time>2015-07-06T10:40:23Z</time>
      </trkpt>
      <trkpt lat="41.79539" lon="9.22834">
        <ele>1193.367</ele>
        <time>2015-07-06T10:40:24Z</time>
      </trkpt>
      <trkpt lat="41.79535" lon="9.22829">
        <ele>1191.686</ele>
        <time>2015-07-06T10:40:25Z</time>
      </trkpt>
      <trkpt lat="41.7953" lon="9.22826">
        <ele>1190.915</ele>
        <time>2015-07-06T10:40:43Z</time>
      </trkpt>
      <trkpt lat="41.79534" lon="9.22828">
        <ele>1188.714</ele>
        <time>2015-07-06T10:40:51Z</time>
      </trkpt>
      <trkpt lat="41.79535" lon="9.22826">
        <ele>1185.685</ele>
        <time>2015-07-06T10:40:55Z</time>
      </trkpt>
      <trkpt lat="41.79532" lon="9.22828">
        <ele>1182.04</ele>
        <time>2015-07-06T10:41:03Z</time>
      </trkpt>
      <trkpt lat="41.7953" lon="9.22829">
        <ele>1178.986</ele>
        <time>2015-07-06T10:41:07Z</time>
      </trkpt>
      <trkpt lat="41.79529" lon="9.22832">
        <ele>1175.133</ele>
        <time>2015-07-06T10:41:12Z</time>
      </trkpt>
      <trkpt lat="41.79529" lon="9.22833">
        <ele>1174.863</ele>
        <time>2015-07-06T10:41:13Z</time>
      </trkpt>
      <trkpt lat="41.79528" lon="9.22833">
        <ele>1173.715</ele>
        <time>2015-07-06T10:41:15Z</time>
      </trkpt>
      <trkpt lat="41.79519" lon="9.22834">
        <ele>1170.916</ele>
        <time>2015-07-06T10:41:20Z</time>
      </trkpt>
      <trkpt lat="41.79503" lon="9.22845">
        <ele>1167.664</ele>
        <time>2015-07-06T10:41:36Z</time>
      </trkpt>
      <trkpt lat="41.79486" lon="9.2287">
        <ele>1165.961</ele>
        <time>2015-07-06T10:42:00Z</time>
      </trkpt>
      <trkpt lat="41.79475" lon="9.22882">
        <ele>1165.566</ele>
        <time>2015-07-06T10:42:14Z</time>
      </trkpt>
      <trkpt lat="41.7947" lon="9.22897">
        <ele>1165.432</ele>
        <time>2015-07-06T10:42:24Z</time>
      </trkpt>
      <trkpt lat="41.79471" lon="9.22901">
        <ele>1165.681</ele>
        <time>2015-07-06T10:42:27Z</time>
      </trkpt>
      <trkpt lat="41.79468" lon="9.22921">
        <ele>1165.429</ele>
        <time>2015-07-06T10:42:42Z</time>
      </trkpt>
      <trkpt lat="41.79468" lon="9.22941">
        <ele>1164.46</ele>
        <time>2015-07-06T10:42:55Z</time>
      </trkpt>
      <trkpt lat="41.79469" lon="9.22947">
        <ele>1164.593</ele>
        <time>2015-07-06T10:43:00Z</time>
      </trkpt>
      <trkpt lat="41.79458" lon="9.22974">
        <ele>1164.282</ele>
        <time>2015-07-06T10:43:22Z</time>
      </trkpt>
      <trkpt lat="41.79462" lon="9.22979">
        <ele>1164.751</ele>
        <time>2015-07-06T10:43:37Z</time>
      </trkpt>
      <trkpt lat="41.79463" lon="9.22978">
        <ele>1164.465</ele>
        <time>2015-07-06T10:43:46Z</time>
      </trkpt>
      <trkpt lat="41.79462" lon="9.22973">
        <ele>1164.594</ele>
        <time>2015-07-06T10:43:50Z</time>
      </trkpt>
      <trkpt lat="41.7944" lon="9.22973">
        <ele>1165.388</ele>
        <time>2015-07-06T10:44:10Z</time>
      </trkpt>
      <trkpt lat="41.79424" lon="9.22963">
        <ele>1165.05</ele>
        <time>2015-07-06T10:44:26Z</time>
      </trkpt>
      <trkpt lat="41.79421" lon="9.22963">
        <ele>1165.183</ele>
        <time>2015-07-06T10:44:29Z</time>
      </trkpt>
      <trkpt lat="41.79418" lon="9.22964">
        <ele>1164.839</ele>
        <time>2015-07-06T10:44:32Z</time>
      </trkpt>
      <trkpt lat="41.79401" lon="9.2298">
        <ele>1165.292</ele>
        <time>2015-07-06T10:44:50Z</time>
      </trkpt>
      <trkpt lat="41.79391" lon="9.22991">
        <ele>1164.602</ele>
        <time>2015-07-06T10:45:01Z</time>
      </trkpt>
      <trkpt lat="41.79385" lon="9.22995">
        <ele>1164.67</ele>
        <time>2015-07-06T10:45:06Z</time>
      </trkpt>
      <trkpt lat="41.79379" lon="9.22999">
        <ele>1164.859</ele>
        <time>2015-07-06T10:45:11Z</time>
      </trkpt>
      <trkpt lat="41.7936" lon="9.23016">
        <ele>1164.315</ele>
        <time>2015-07-06T10:45:30Z</time>
      </trkpt>
      <trkpt lat="41.79357" lon="9.2302">
        <ele>1164.405</ele>
        <time>2015-07-06T10:45:34Z</time>
      </trkpt>
      <trkpt lat="41.79354" lon="9.23024">
        <ele>1164.172</ele>
        <time>2015-07-06T10:45:37Z</time>
      </trkpt>
      <trkpt lat="41.79349" lon="9.23025">
        <ele>1164.351</ele>
        <time>2015-07-06T10:45:41Z</time>
      </trkpt>
      <trkpt lat="41.7934" lon="9.2303">
        <ele>1164.355</ele>
        <time>2015-07-06T10:45:50Z</time>
      </trkpt>
      <trkpt lat="41.79338" lon="9.23032">
        <ele>1164.534</ele>
        <time>2015-07-06T10:45:52Z</time>
      </trkpt>
      <trkpt lat="41.79316" lon="9.23043">
        <ele>1165.917</ele>
        <time>2015-07-06T10:46:11Z</time>
      </trkpt>
      <trkpt lat="41.79309" lon="9.23049">
        <ele>1165.716</ele>
        <time>2015-07-06T10:46:20Z</time>
      </trkpt>
      <trkpt lat="41.79302" lon="9.23051">
        <ele>1165.514</ele>
        <time>2015-07-06T10:46:25Z</time>
      </trkpt>
      <trkpt lat="41.79289" lon="9.23052">
        <ele>1164.478</ele>
        <time>2015-07-06T10:46:37Z</time>
      </trkpt>
      <trkpt lat="41.7927" lon="9.23048">
        <ele>1164.367</ele>
        <time>2015-07-06T10:46:53Z</time>
      </trkpt>
      <trkpt lat="41.79252" lon="9.23047">
        <ele>1162.599</ele>
        <time>2015-07-06T10:47:09Z</time>
      </trkpt>
      <trkpt lat="41.79235" lon="9.23048">
        <ele>1163.338</ele>
        <time>2015-07-06T10:47:24Z</time>
      </trkpt>
      <trkpt lat="41.79224" lon="9.23045">
        <ele>1163.94</ele>
        <time>2015-07-06T10:47:41Z</time>
      </trkpt>
      <trkpt lat="41.79223" lon="9.23041">
        <ele>1162.957</ele>
        <time>2015-07-06T10:48:01Z</time>
      </trkpt>
      <trkpt lat="41.7922" lon="9.23043">
        <ele>1165.035</ele>
        <time>2015-07-06T10:48:19Z</time>
      </trkpt>
      <trkpt lat="41.79211" lon="9.23048">
        <ele>1164.67</ele>
        <time>2015-07-06T10:48:29Z</time>
      </trkpt>
      <trkpt lat="41.79209" lon="9.23049">
        <ele>1164.775</ele>
        <time>2015-07-06T10:48:31Z</time>
      </trkpt>
      <trkpt lat="41.79203" lon="9.23051">
        <ele>1163.916</ele>
        <time>2015-07-06T10:48:36Z</time>
      </trkpt>
      <trkpt lat="41.79195" lon="9.23058">
        <ele>1163.925</ele>
        <time>2015-07-06T10:48:46Z</time>
      </trkpt>
      <trkpt lat="41.79194" lon="9.2308">
        <ele>1164.106</ele>
        <time>2015-07-06T10:49:00Z</time>
      </trkpt>
      <trkpt lat="41.79196" lon="9.23113">
        <ele>1163.977</ele>
        <time>2015-07-06T10:49:18Z</time>
      </trkpt>
      <trkpt lat="41.79196" lon="9.23131">
        <ele>1164.565</ele>
        <time>2015-07-06T10:49:31Z</time>
      </trkpt>
      <trkpt lat="41.79185" lon="9.23162">
        <ele>1165.288</ele>
        <time>2015-07-06T10:49:51Z</time>
      </trkpt>
      <trkpt lat="41.79181" lon="9.23175">
        <ele>1165.35</ele>
        <time>2015-07-06T10:49:59Z</time>
      </trkpt>
      <trkpt lat="41.79164" lon="9.23194">
        <ele>1164.027</ele>
        <time>2015-07-06T10:50:16Z</time>
      </trkpt>
      <trkpt lat="41.7915" lon="9.23213">
        <ele>1163.601</ele>
        <time>2015-07-06T10:50:31Z</time>
      </trkpt>
      <trkpt lat="41.79131" lon="9.23236">
        <ele>1163.56</ele>
        <time>2015-07-06T10:50:53Z</time>
      </trkpt>
      <trkpt lat="41.79113" lon="9.23246">
        <ele>1161.975</ele>
        <time>2015-07-06T10:51:11Z</time>
      </trkpt>
      <trkpt lat="41.79095" lon="9.23241">
        <ele>1160.256</ele>
        <time>2015-07-06T10:51:28Z</time>
      </trkpt>
      <trkpt lat="41.79089" lon="9.23242">
        <ele>1159.987</ele>
        <time>2015-07-06T10:51:37Z</time>
      </trkpt>
      <trkpt lat="41.79084" lon="9.23257">
        <ele>1158.18</ele>
        <time>2015-07-06T10:51:50Z</time>
      </trkpt>
      <trkpt lat="41.79085" lon="9.23266">
        <ele>1157.717</ele>
        <time>2015-07-06T10:51:55Z</time>
      </trkpt>
      <trkpt lat="41.79086" lon="9.23291">
        <ele>1157.441</ele>
        <time>2015-07-06T10:52:12Z</time>
      </trkpt>
      <trkpt lat="41.79085" lon="9.233">
        <ele>1157.741</ele>
        <time>2015-07-06T10:52:18Z</time>
      </trkpt>
      <trkpt lat="41.79077" lon="9.23307">
        <ele>1158.238</ele>
        <time>2015-07-06T10:52:31Z</time>
      </trkpt>
      <trkpt lat="41.79071" lon="9.23317">
        <ele>1158.913</ele>
        <time>2015-07-06T10:52:40Z</time>
      </trkpt>
      <trkpt lat="41.79071" lon="9.23349">
        <ele>1158.372</ele>
        <time>2015-07-06T10:52:59Z</time>
      </trkpt>
      <trkpt lat="41.79072" lon="9.23366">
        <ele>1159.318</ele>
        <time>2015-07-06T10:53:10Z</time>
      </trkpt>
      <trkpt lat="41.79073" lon="9.23376">
        <ele>1159.443</ele>
        <time>2015-07-06T10:53:16Z</time>
      </trkpt>
      <trkpt lat="41.79068" lon="9.23391">
        <ele>1158.126</ele>
        <time>2015-07-06T10:53:31Z</time>
      </trkpt>
      <trkpt lat="41.79071" lon="9.23402">
        <ele>1154.86</ele>
        <time>2015-07-06T10:53:46Z</time>
      </trkpt>
      <trkpt lat="41.79069" lon="9.23414">
        <ele>1152.338</ele>
        <time>2015-07-06T10:54:02Z</time>
      </trkpt>
      <trkpt lat="41.79068" lon="9.23418">
        <ele>1150.163</ele>
        <time>2015-07-06T10:54:12Z</time>
      </trkpt>
      <trkpt lat="41.79068" lon="9.23426">
        <ele>1147.415</ele>
        <time>2015-07-06T10:54:26Z</time>
      </trkpt>
      <trkpt lat="41.79064" lon="9.23435">
        <ele>1145.479</ele>
        <time>2015-07-06T10:54:39Z</time>
      </trkpt>
      <trkpt lat="41.79061" lon="9.23441">
        <ele>1144.004</ele>
        <time>2015-07-06T10:54:49Z</time>
      </trkpt>
      <trkpt lat="41.79058" lon="9.23447">
        <ele>1141.801</ele>
        <time>2015-07-06T10:55:01Z</time>
      </trkpt>
      <trkpt lat="41.79053" lon="9.23462">
        <ele>1138.476</ele>
        <time>2015-07-06T10:55:16Z</time>
      </trkpt>
      <trkpt lat="41.79047" lon="9.23475">
        <ele>1135.746</ele>
        <time>2015-07-06T10:55:33Z</time>
      </trkpt>
      <trkpt lat="41.79047" lon="9.23484">
        <ele>1133.951</ele>
        <time>2015-07-06T10:55:50Z</time>
      </trkpt>
      <trkpt lat="41.79044" lon="9.23492">
        <ele>1132.382</ele>
        <time>2015-07-06T10:56:07Z</time>
      </trkpt>
      <trkpt lat="41.79044" lon="9.23497">
        <ele>1130.943</ele>
        <time>2015-07-06T10:56:24Z</time>
      </trkpt>
      <trkpt lat="41.79043" lon="9.23505">
        <ele>1128.726</ele>
        <time>2015-07-06T10:56:39Z</time>
      </trkpt>
      <trkpt lat="41.79038" lon="9.23508">
        <ele>1127.332</ele>
        <time>2015-07-06T10:56:51Z</time>
      </trkpt>
      <trkpt lat="41.79036" lon="9.23509">
        <ele>1126.338</ele>
        <time>2015-07-06T10:57:04Z</time>
      </trkpt>
      <trkpt lat="41.79034" lon="9.23511">
        <ele>1123.235</ele>
        <time>2015-07-06T10:57:12Z</time>
      </trkpt>
      <trkpt lat="41.79026" lon="9.23516">
        <ele>1121.1</ele>
        <time>2015-07-06T10:57:27Z</time>
      </trkpt>
      <trkpt lat="41.79022" lon="9.23519">
        <ele>1119.585</ele>
        <time>2015-07-06T10:57:40Z</time>
      </trkpt>
      <trkpt lat="41.79014" lon="9.23525">
        <ele>1117.36</ele>
        <time>2015-07-06T10:57:51Z</time>
      </trkpt>
      <trkpt lat="41.79007" lon="9.23534">
        <ele>1115.245</ele>
        <time>2015-07-06T10:58:10Z</time>
      </trkpt>
      <trkpt lat="41.79002" lon="9.23535">
        <ele>1113.59</ele>
        <time>2015-07-06T10:58:22Z</time>
      </trkpt>
      <trkpt lat="41.79" lon="9.23543">
        <ele>1111.192</ele>
        <time>2015-07-06T10:58:36Z</time>
      </trkpt>
      <trkpt lat="41.78999" lon="9.23543">
        <ele>1108.399</ele>
        <time>2015-07-06T10:58:50Z</time>
      </trkpt>
      <trkpt lat="41.78999" lon="9.23543">
        <ele>1108.402</ele>
        <time>2015-07-06T10:58:51Z</time>
      </trkpt>
      <trkpt lat="41.78988" lon="9.23547">
        <ele>1105.95</ele>
        <time>2015-07-06T10:59:05Z</time>
      </trkpt>
      <trkpt lat="41.78979" lon="9.23551">
        <ele>1104.34</ele>
        <time>2015-07-06T10:59:19Z</time>
      </trkpt>
      <trkpt lat="41.78976" lon="9.23554">
        <ele>1102.334</ele>
        <time>2015-07-06T10:59:26Z</time>
      </trkpt>
      <trkpt lat="41.7897" lon="9.23559">
        <ele>1101.142</ele>
        <time>2015-07-06T10:59:39Z</time>
      </trkpt>
      <trkpt lat="41.78966" lon="9.23561">
        <ele>1097.94</ele>
        <time>2015-07-06T10:59:50Z</time>
      </trkpt>
      <trkpt lat="41.78958" lon="9.23564">
        <ele>1096.4</ele>
        <time>2015-07-06T11:00:07Z</time>
      </trkpt>
      <trkpt lat="41.78951" lon="9.23568">
        <ele>1093.768</ele>
        <time>2015-07-06T11:00:21Z</time>
      </trkpt>
      <trkpt lat="41.78949" lon="9.23575">
        <ele>1091.324</ele>
        <time>2015-07-06T11:00:34Z</time>
      </trkpt>
      <trkpt lat="41.78948" lon="9.23576">
        <ele>1091.09</ele>
        <time>2015-07-06T11:00:35Z</time>
      </trkpt>
      <trkpt lat="41.78947" lon="9.23578">
        <ele>1088.453</ele>
        <time>2015-07-06T11:00:47Z</time>
      </trkpt>
      <trkpt lat="41.78942" lon="9.23586">
        <ele>1087.173</ele>
        <time>2015-07-06T11:01:00Z</time>
      </trkpt>
      <trkpt lat="41.78937" lon="9.23593">
        <ele>1084.657</ele>
        <time>2015-07-06T11:01:13Z</time>
      </trkpt>
      <trkpt lat="41.78937" lon="9.23602">
        <ele>1086.348</ele>
        <time>2015-07-06T11:01:26Z</time>
      </trkpt>
      <trkpt lat="41.78937" lon="9.23613">
        <ele>1087.583</ele>
        <time>2015-07-06T11:01:40Z</time>
      </trkpt>
      <trkpt lat="41.7894" lon="9.23619">
        <ele>1084.855</ele>
        <time>2015-07-06T11:01:53Z</time>
      </trkpt>
      <trkpt lat="41.78944" lon="9.23626">
        <ele>1084.062</ele>
        <time>2015-07-06T11:02:06Z</time>
      </trkpt>
      <trkpt lat="41.78942" lon="9.23644">
        <ele>1082.521</ele>
        <time>2015-07-06T11:02:21Z</time>
      </trkpt>
      <trkpt lat="41.7894" lon="9.23658">
        <ele>1080.631</ele>
        <time>2015-07-06T11:02:34Z</time>
      </trkpt>
      <trkpt lat="41.78942" lon="9.23674">
        <ele>1078.747</ele>
        <time>2015-07-06T11:02:49Z</time>
      </trkpt>
      <trkpt lat="41.78943" lon="9.2369">
        <ele>1077.381</ele>
        <time>2015-07-06T11:03:02Z</time>
      </trkpt>
      <trkpt lat="41.78944" lon="9.23703">
        <ele>1075.098</ele>
        <time>2015-07-06T11:03:17Z</time>
      </trkpt>
      <trkpt lat="41.78946" lon="9.23711">
        <ele>1073.241</ele>
        <time>2015-07-06T11:03:30Z</time>
      </trkpt>
      <trkpt lat="41.78948" lon="9.23728">
        <ele>1071.026</ele>
        <time>2015-07-06T11:03:45Z</time>
      </trkpt>
      <trkpt lat="41.78949" lon="9.23742">
        <ele>1069.565</ele>
        <time>2015-07-06T11:03:57Z</time>
      </trkpt>
      <trkpt lat="41.7895" lon="9.23753">
        <ele>1066.716</ele>
        <time>2015-07-06T11:04:13Z</time>
      </trkpt>
      <trkpt lat="41.78953" lon="9.23759">
        <ele>1064.754</ele>
        <time>2015-07-06T11:04:26Z</time>
      </trkpt>
      <trkpt lat="41.7895" lon="9.23766">
        <ele>1063.499</ele>
        <time>2015-07-06T11:04:41Z</time>
      </trkpt>
      <trkpt lat="41.78952" lon="9.23773">
        <ele>1060.677</ele>
        <time>2015-07-06T11:04:55Z</time>
      </trkpt>
      <trkpt lat="41.78951" lon="9.23779">
        <ele>1059.169</ele>
        <time>2015-07-06T11:05:10Z</time>
      </trkpt>
      <trkpt lat="41.78957" lon="9.23789">
        <ele>1056.596</ele>
        <time>2015-07-06T11:05:26Z</time>
      </trkpt>
      <trkpt lat="41.78963" lon="9.23801">
        <ele>1054.811</ele>
        <time>2015-07-06T11:05:40Z</time>
      </trkpt>
      <trkpt lat="41.78967" lon="9.23808">
        <ele>1053.784</ele>
        <time>2015-07-06T11:05:58Z</time>
      </trkpt>
      <trkpt lat="41.78976" lon="9.23817">
        <ele>1051.636</ele>
        <time>2015-07-06T11:06:15Z</time>
      </trkpt>
      <trkpt lat="41.78978" lon="9.2383">
        <ele>1049.546</ele>
        <time>2015-07-06T11:06:32Z</time>
      </trkpt>
      <trkpt lat="41.78978" lon="9.23842">
        <ele>1047.214</ele>
        <time>2015-07-06T11:06:45Z</time>
      </trkpt>
      <trkpt lat="41.78977" lon="9.23843">
        <ele>1046.837</ele>
        <time>2015-07-06T11:06:47Z</time>
      </trkpt>
      <trkpt lat="41.78964" lon="9.23852">
        <ele>1043.874</ele>
        <time>2015-07-06T11:07:03Z</time>
      </trkpt>
      <trkpt lat="41.78955" lon="9.2385">
        <ele>1040.805</ele>
        <time>2015-07-06T11:07:19Z</time>
      </trkpt>
      <trkpt lat="41.78946" lon="9.23845">
        <ele>1038.189</ele>
        <time>2015-07-06T11:07:34Z</time>
      </trkpt>
      <trkpt lat="41.78936" lon="9.23848">
        <ele>1036.628</ele>
        <time>2015-07-06T11:07:49Z</time>
      </trkpt>
      <trkpt lat="41.7893" lon="9.23851">
        <ele>1033.851</ele>
        <time>2015-07-06T11:08:03Z</time>
      </trkpt>
      <trkpt lat="41.78927" lon="9.23861">
        <ele>1031.095</ele>
        <time>2015-07-06T11:08:17Z</time>
      </trkpt>
      <trkpt lat="41.78923" lon="9.23867">
        <ele>1029.121</ele>
        <time>2015-07-06T11:08:29Z</time>
      </trkpt>
      <trkpt lat="41.78917" lon="9.23871">
        <ele>1026.021</ele>
        <time>2015-07-06T11:08:41Z</time>
      </trkpt>
      <trkpt lat="41.78915" lon="9.23872">
        <ele>1025.603</ele>
        <time>2015-07-06T11:08:44Z</time>
      </trkpt>
      <trkpt lat="41.7891" lon="9.2387">
        <ele>1026.2</ele>
        <time>2015-07-06T11:08:49Z</time>
      </trkpt>
      <trkpt lat="41.78895" lon="9.23857">
        <ele>1023.868</ele>
        <time>2015-07-06T11:09:07Z</time>
      </trkpt>
      <trkpt lat="41.78881" lon="9.23844">
        <ele>1022.537</ele>
        <time>2015-07-06T11:09:23Z</time>
      </trkpt>
      <trkpt lat="41.78861" lon="9.23851">
        <ele>1022.451</ele>
        <time>2015-07-06T11:09:42Z</time>
      </trkpt>
      <trkpt lat="41.78851" lon="9.23855">
        <ele>1021.261</ele>
        <time>2015-07-06T11:09:56Z</time>
      </trkpt>
      <trkpt lat="41.7883" lon="9.23864">
        <ele>1019.668</ele>
        <time>2015-07-06T11:10:13Z</time>
      </trkpt>
      <trkpt lat="41.78809" lon="9.23869">
        <ele>1018.863</ele>
        <time>2015-07-06T11:10:31Z</time>
      </trkpt>
      <trkpt lat="41.78799" lon="9.23877">
        <ele>1019.008</ele>
        <time>2015-07-06T11:10:48Z</time>
      </trkpt>
      <trkpt lat="41.78794" lon="9.23876">
        <ele>1019.79</ele>
        <time>2015-07-06T11:11:13Z</time>
      </trkpt>
      <trkpt lat="41.78806" lon="9.23899">
        <ele>1020.906</ele>
        <time>2015-07-06T11:11:32Z</time>
      </trkpt>
      <trkpt lat="41.78824" lon="9.23913">
        <ele>1021.199</ele>
        <time>2015-07-06T11:11:51Z</time>
      </trkpt>
      <trkpt lat="41.78838" lon="9.23917">
        <ele>1021.82</ele>
        <time>2015-07-06T11:12:03Z</time>
      </trkpt>
      <trkpt lat="41.78841" lon="9.2392">
        <ele>1022.217</ele>
        <time>2015-07-06T11:12:06Z</time>
      </trkpt>
      <trkpt lat="41.78859" lon="9.23939">
        <ele>1022.661</ele>
        <time>2015-07-06T11:12:25Z</time>
      </trkpt>
      <trkpt lat="41.78864" lon="9.23945">
        <ele>1023.157</ele>
        <time>2015-07-06T11:12:30Z</time>
      </trkpt>
      <trkpt lat="41.78868" lon="9.23951">
        <ele>1023.335</ele>
        <time>2015-07-06T11:12:35Z</time>
      </trkpt>
      <trkpt lat="41.78877" lon="9.23968">
        <ele>1023.859</ele>
        <time>2015-07-06T11:12:50Z</time>
      </trkpt>
      <trkpt lat="41.78878" lon="9.23995">
        <ele>1022.227</ele>
        <time>2015-07-06T11:13:09Z</time>
      </trkpt>
      <trkpt lat="41.78873" lon="9.24019">
        <ele>1021.288</ele>
        <time>2015-07-06T11:13:24Z</time>
      </trkpt>
      <trkpt lat="41.78869" lon="9.24034">
        <ele>1023.828</ele>
        <time>2015-07-06T11:13:42Z</time>
      </trkpt>
      <trkpt lat="41.78869" lon="9.2405">
        <ele>1025.13</ele>
        <time>2015-07-06T11:14:00Z</time>
      </trkpt>
      <trkpt lat="41.78865" lon="9.24062">
        <ele>1026.718</ele>
        <time>2015-07-06T11:14:15Z</time>
      </trkpt>
      <trkpt lat="41.7886" lon="9.24083">
        <ele>1027.282</ele>
        <time>2015-07-06T11:14:31Z</time>
      </trkpt>
      <trkpt lat="41.78859" lon="9.24095">
        <ele>1028.266</ele>
        <time>2015-07-06T11:14:43Z</time>
      </trkpt>
      <trkpt lat="41.78861" lon="9.241">
        <ele>1029.783</ele>
        <time>2015-07-06T11:14:56Z</time>
      </trkpt>
      <trkpt lat="41.78861" lon="9.24109">
        <ele>1032.593</ele>
        <time>2015-07-06T11:15:12Z</time>
      </trkpt>
      <trkpt lat="41.78864" lon="9.24115">
        <ele>1034.169</ele>
        <time>2015-07-06T11:15:26Z</time>
      </trkpt>
      <trkpt lat="41.78864" lon="9.2412">
        <ele>1036.643</ele>
        <time>2015-07-06T11:15:48Z</time>
      </trkpt>
      <trkpt lat="41.78868" lon="9.24129">
        <ele>1038.695</ele>
        <time>2015-07-06T11:16:01Z</time>
      </trkpt>
      <trkpt lat="41.78875" lon="9.24135">
        <ele>1040.347</ele>
        <time>2015-07-06T11:16:18Z</time>
      </trkpt>
      <trkpt lat="41.78881" lon="9.24148">
        <ele>1042.325</ele>
        <time>2015-07-06T11:16:36Z</time>
      </trkpt>
      <trkpt lat="41.78884" lon="9.24155">
        <ele>1043.981</ele>
        <time>2015-07-06T11:16:51Z</time>
      </trkpt>
      <trkpt lat="41.78885" lon="9.24166">
        <ele>1046.384</ele>
        <time>2015-07-06T11:17:10Z</time>
      </trkpt>
      <trkpt lat="41.78884" lon="9.24174">
        <ele>1048.335</ele>
        <time>2015-07-06T11:17:27Z</time>
      </trkpt>
      <trkpt lat="41.78884" lon="9.24184">
        <ele>1050.812</ele>
        <time>2015-07-06T11:17:44Z</time>
      </trkpt>
      <trkpt lat="41.78887" lon="9.2419">
        <ele>1051.999</ele>
        <time>2015-07-06T11:18:00Z</time>
      </trkpt>
      <trkpt lat="41.78891" lon="9.24199">
        <ele>1054.287</ele>
        <time>2015-07-06T11:18:14Z</time>
      </trkpt>
      <trkpt lat="41.78893" lon="9.24209">
        <ele>1056.577</ele>
        <time>2015-07-06T11:18:31Z</time>
      </trkpt>
      <trkpt lat="41.78894" lon="9.24217">
        <ele>1057.699</ele>
        <time>2015-07-06T11:18:44Z</time>
      </trkpt>
      <trkpt lat="41.78896" lon="9.24229">
        <ele>1059.632</ele>
        <time>2015-07-06T11:18:59Z</time>
      </trkpt>
      <trkpt lat="41.78896" lon="9.24243">
        <ele>1060.441</ele>
        <time>2015-07-06T11:19:14Z</time>
      </trkpt>
      <trkpt lat="41.78897" lon="9.24253">
        <ele>1061.977</ele>
        <time>2015-07-06T11:19:26Z</time>
      </trkpt>
      <trkpt lat="41.78899" lon="9.24262">
        <ele>1063.888</ele>
        <time>2015-07-06T11:19:41Z</time>
      </trkpt>
      <trkpt lat="41.78899" lon="9.2427">
        <ele>1066.668</ele>
        <time>2015-07-06T11:20:01Z</time>
      </trkpt>
      <trkpt lat="41.78895" lon="9.24275">
        <ele>1068.097</ele>
        <time>2015-07-06T11:20:17Z</time>
      </trkpt>
      <trkpt lat="41.78896" lon="9.24282">
        <ele>1069.347</ele>
        <time>2015-07-06T11:20:30Z</time>
      </trkpt>
      <trkpt lat="41.789" lon="9.24292">
        <ele>1070.804</ele>
        <time>2015-07-06T11:20:47Z</time>
      </trkpt>
      <trkpt lat="41.78903" lon="9.24297">
        <ele>1072.35</ele>
        <time>2015-07-06T11:21:01Z</time>
      </trkpt>
      <trkpt lat="41.7891" lon="9.24298">
        <ele>1073.595</ele>
        <time>2015-07-06T11:21:15Z</time>
      </trkpt>
      <trkpt lat="41.78916" lon="9.24308">
        <ele>1075.501</ele>
        <time>2015-07-06T11:21:34Z</time>
      </trkpt>
      <trkpt lat="41.78922" lon="9.24317">
        <ele>1078.418</ele>
        <time>2015-07-06T11:21:54Z</time>
      </trkpt>
      <trkpt lat="41.78922" lon="9.2433">
        <ele>1081.008</ele>
        <time>2015-07-06T11:22:14Z</time>
      </trkpt>
      <trkpt lat="41.78932" lon="9.24342">
        <ele>1083.049</ele>
        <time>2015-07-06T11:22:36Z</time>
      </trkpt>
      <trkpt lat="41.78937" lon="9.24348">
        <ele>1086.279</ele>
        <time>2015-07-06T11:23:02Z</time>
      </trkpt>
      <trkpt lat="41.78937" lon="9.24354">
        <ele>1087.904</ele>
        <time>2015-07-06T11:23:29Z</time>
      </trkpt>
      <trkpt lat="41.78936" lon="9.24366">
        <ele>1089.824</ele>
        <time>2015-07-06T11:23:47Z</time>
      </trkpt>
      <trkpt lat="41.7894" lon="9.24372">
        <ele>1092.217</ele>
        <time>2015-07-06T11:24:03Z</time>
      </trkpt>
      <trkpt lat="41.7895" lon="9.24376">
        <ele>1092.762</ele>
        <time>2015-07-06T11:24:22Z</time>
      </trkpt>
      <trkpt lat="41.78957" lon="9.24382">
        <ele>1094.031</ele>
        <time>2015-07-06T11:24:34Z</time>
      </trkpt>
      <trkpt lat="41.78961" lon="9.24391">
        <ele>1095.442</ele>
        <time>2015-07-06T11:24:45Z</time>
      </trkpt>
      <trkpt lat="41.78967" lon="9.24396">
        <ele>1097.243</ele>
        <time>2015-07-06T11:24:59Z</time>
      </trkpt>
      <trkpt lat="41.78968" lon="9.24407">
        <ele>1099.544</ele>
        <time>2015-07-06T11:25:18Z</time>
      </trkpt>
      <trkpt lat="41.78971" lon="9.24414">
        <ele>1101.799</ele>
        <time>2015-07-06T11:25:32Z</time>
      </trkpt>
      <trkpt lat="41.78974" lon="9.24416">
        <ele>1101.713</ele>
        <time>2015-07-06T11:25:55Z</time>
      </trkpt>
      <trkpt lat="41.78982" lon="9.24423">
        <ele>1101.7</ele>
        <time>2015-07-06T11:26:18Z</time>
      </trkpt>
      <trkpt lat="41.7899" lon="9.24435">
        <ele>1101.489</ele>
        <time>2015-07-06T11:26:35Z</time>
      </trkpt>
      <trkpt lat="41.78994" lon="9.24445">
        <ele>1101.356</ele>
        <time>2015-07-06T11:26:45Z</time>
      </trkpt>
      <trkpt lat="41.78999" lon="9.24461">
        <ele>1101.831</ele>
        <time>2015-07-06T11:27:02Z</time>
      </trkpt>
      <trkpt lat="41.79005" lon="9.24468">
        <ele>1100.67</ele>
        <time>2015-07-06T11:27:15Z</time>
      </trkpt>
      <trkpt lat="41.79008" lon="9.24487">
        <ele>1099.869</ele>
        <time>2015-07-06T11:27:30Z</time>
      </trkpt>
      <trkpt lat="41.7901" lon="9.24495">
        <ele>1100.013</ele>
        <time>2015-07-06T11:27:43Z</time>
      </trkpt>
      <trkpt lat="41.7901" lon="9.24506">
        <ele>1101.287</ele>
        <time>2015-07-06T11:28:01Z</time>
      </trkpt>
      <trkpt lat="41.79018" lon="9.24514">
        <ele>1100.98</ele>
        <time>2015-07-06T11:28:14Z</time>
      </trkpt>
      <trkpt lat="41.79019" lon="9.24529">
        <ele>1103.136</ele>
        <time>2015-07-06T11:28:28Z</time>
      </trkpt>
      <trkpt lat="41.79025" lon="9.24541">
        <ele>1104.717</ele>
        <time>2015-07-06T11:28:46Z</time>
      </trkpt>
      <trkpt lat="41.79026" lon="9.24553">
        <ele>1107.622</ele>
        <time>2015-07-06T11:29:02Z</time>
      </trkpt>
      <trkpt lat="41.79029" lon="9.2456">
        <ele>1109.872</ele>
        <time>2015-07-06T11:29:17Z</time>
      </trkpt>
      <trkpt lat="41.79034" lon="9.24566">
        <ele>1110.421</ele>
        <time>2015-07-06T11:29:31Z</time>
      </trkpt>
      <trkpt lat="41.79035" lon="9.24569">
        <ele>1111.977</ele>
        <time>2015-07-06T11:29:42Z</time>
      </trkpt>
      <trkpt lat="41.79034" lon="9.24573">
        <ele>1114.02</ele>
        <time>2015-07-06T11:29:56Z</time>
      </trkpt>
      <trkpt lat="41.79032" lon="9.2458">
        <ele>1116.273</ele>
        <time>2015-07-06T11:30:12Z</time>
      </trkpt>
      <trkpt lat="41.79033" lon="9.24587">
        <ele>1117.272</ele>
        <time>2015-07-06T11:30:31Z</time>
      </trkpt>
      <trkpt lat="41.79038" lon="9.24592">
        <ele>1118.907</ele>
        <time>2015-07-06T11:30:46Z</time>
      </trkpt>
      <trkpt lat="41.79036" lon="9.24603">
        <ele>1121.038</ele>
        <time>2015-07-06T11:31:02Z</time>
      </trkpt>
      <trkpt lat="41.79034" lon="9.24612">
        <ele>1122.09</ele>
        <time>2015-07-06T11:31:17Z</time>
      </trkpt>
      <trkpt lat="41.79034" lon="9.24622">
        <ele>1123.797</ele>
        <time>2015-07-06T11:31:34Z</time>
      </trkpt>
      <trkpt lat="41.79039" lon="9.24632">
        <ele>1125.997</ele>
        <time>2015-07-06T11:31:54Z</time>
      </trkpt>
      <trkpt lat="41.7905" lon="9.2464">
        <ele>1126.822</ele>
        <time>2015-07-06T11:32:11Z</time>
      </trkpt>
      <trkpt lat="41.79057" lon="9.24644">
        <ele>1126.261</ele>
        <time>2015-07-06T11:32:18Z</time>
      </trkpt>
      <trkpt lat="41.79068" lon="9.24644">
        <ele>1128.655</ele>
        <time>2015-07-06T11:32:34Z</time>
      </trkpt>
      <trkpt lat="41.79077" lon="9.24645">
        <ele>1129.331</ele>
        <time>2015-07-06T11:32:50Z</time>
      </trkpt>
      <trkpt lat="41.79082" lon="9.24649">
        <ele>1129.904</ele>
        <time>2015-07-06T11:33:01Z</time>
      </trkpt>
      <trkpt lat="41.79091" lon="9.24655">
        <ele>1130.262</ele>
        <time>2015-07-06T11:33:13Z</time>
      </trkpt>
      <trkpt lat="41.79098" lon="9.24661">
        <ele>1131.564</ele>
        <time>2015-07-06T11:33:29Z</time>
      </trkpt>
      <trkpt lat="41.791" lon="9.2467">
        <ele>1133.324</ele>
        <time>2015-07-06T11:33:41Z</time>
      </trkpt>
      <trkpt lat="41.79101" lon="9.24676">
        <ele>1136.547</ele>
        <time>2015-07-06T11:33:57Z</time>
      </trkpt>
      <trkpt lat="41.79108" lon="9.24683">
        <ele>1138.254</ele>
        <time>2015-07-06T11:34:14Z</time>
      </trkpt>
      <trkpt lat="41.79113" lon="9.24688">
        <ele>1139.467</ele>
        <time>2015-07-06T11:34:31Z</time>
      </trkpt>
      <trkpt lat="41.79117" lon="9.24698">
        <ele>1140.291</ele>
        <time>2015-07-06T11:34:47Z</time>
      </trkpt>
      <trkpt lat="41.79126" lon="9.24707">
        <ele>1140.627</ele>
        <time>2015-07-06T11:35:03Z</time>
      </trkpt>
      <trkpt lat="41.79132" lon="9.24713">
        <ele>1141.709</ele>
        <time>2015-07-06T11:35:18Z</time>
      </trkpt>
      <trkpt lat="41.79137" lon="9.24722">
        <ele>1144.445</ele>
        <time>2015-07-06T11:35:33Z</time>
      </trkpt>
      <trkpt lat="41.79138" lon="9.24731">
        <ele>1145.529</ele>
        <time>2015-07-06T11:35:46Z</time>
      </trkpt>
      <trkpt lat="41.7914" lon="9.24737">
        <ele>1147.249</ele>
        <time>2015-07-06T11:35:57Z</time>
      </trkpt>
      <trkpt lat="41.79142" lon="9.24746">
        <ele>1148.848</ele>
        <time>2015-07-06T11:36:12Z</time>
      </trkpt>
      <trkpt lat="41.79145" lon="9.24754">
        <ele>1150.594</ele>
        <time>2015-07-06T11:36:25Z</time>
      </trkpt>
      <trkpt lat="41.79146" lon="9.2476">
        <ele>1150.948</ele>
        <time>2015-07-06T11:36:40Z</time>
      </trkpt>
      <trkpt lat="41.79149" lon="9.2477">
        <ele>1152.449</ele>
        <time>2015-07-06T11:36:57Z</time>
      </trkpt>
      <trkpt lat="41.79151" lon="9.24775">
        <ele>1153.261</ele>
        <time>2015-07-06T11:37:12Z</time>
      </trkpt>
      <trkpt lat="41.79144" lon="9.24777">
        <ele>1153.385</ele>
        <time>2015-07-06T11:38:47Z</time>
      </trkpt>
      <trkpt lat="41.7915" lon="9.24774">
        <ele>1154.04</ele>
        <time>2015-07-06T11:39:14Z</time>
      </trkpt>
      <trkpt lat="41.79148" lon="9.24776">
        <ele>1155.766</ele>
        <time>2015-07-06T11:39:31Z</time>
      </trkpt>
      <trkpt lat="41.79154" lon="9.24774">
        <ele>1156.708</ele>
        <time>2015-07-06T11:39:49Z</time>
      </trkpt>
      <trkpt lat="41.79152" lon="9.24771">
        <ele>1157.553</ele>
        <time>2015-07-06T11:40:02Z</time>
      </trkpt>
      <trkpt lat="41.79146" lon="9.24773">
        <ele>1160.835</ele>
        <time>2015-07-06T11:40:18Z</time>
      </trkpt>
      <trkpt lat="41.79142" lon="9.24772">
        <ele>1162.402</ele>
        <time>2015-07-06T11:40:33Z</time>
      </trkpt>
      <trkpt lat="41.79137" lon="9.24768">
        <ele>1163.67</ele>
        <time>2015-07-06T11:40:47Z</time>
      </trkpt>
      <trkpt lat="41.79134" lon="9.24767">
        <ele>1165.684</ele>
        <time>2015-07-06T11:41:03Z</time>
      </trkpt>
      <trkpt lat="41.79132" lon="9.24771">
        <ele>1166.072</ele>
        <time>2015-07-06T11:41:16Z</time>
      </trkpt>
      <trkpt lat="41.79131" lon="9.24776">
        <ele>1166.747</ele>
        <time>2015-07-06T11:41:30Z</time>
      </trkpt>
      <trkpt lat="41.79128" lon="9.24776">
        <ele>1168.699</ele>
        <time>2015-07-06T11:41:43Z</time>
      </trkpt>
      <trkpt lat="41.79126" lon="9.24777">
        <ele>1171.286</ele>
        <time>2015-07-06T11:41:56Z</time>
      </trkpt>
      <trkpt lat="41.79125" lon="9.24782">
        <ele>1172.457</ele>
        <time>2015-07-06T11:42:09Z</time>
      </trkpt>
      <trkpt lat="41.79126" lon="9.24788">
        <ele>1173.528</ele>
        <time>2015-07-06T11:42:23Z</time>
      </trkpt>
      <trkpt lat="41.79126" lon="9.24792">
        <ele>1175.11</ele>
        <time>2015-07-06T11:42:40Z</time>
      </trkpt>
      <trkpt lat="41.79122" lon="9.24788">
        <ele>1177.062</ele>
        <time>2015-07-06T11:42:54Z</time>
      </trkpt>
      <trkpt lat="41.79118" lon="9.24784">
        <ele>1178.933</ele>
        <time>2015-07-06T11:43:06Z</time>
      </trkpt>
      <trkpt lat="41.79118" lon="9.24792">
        <ele>1179.222</ele>
        <time>2015-07-06T11:43:20Z</time>
      </trkpt>
      <trkpt lat="41.79116" lon="9.24799">
        <ele>1180.372</ele>
        <time>2015-07-06T11:43:33Z</time>
      </trkpt>
      <trkpt lat="41.79116" lon="9.24804">
        <ele>1181.554</ele>
        <time>2015-07-06T11:43:46Z</time>
      </trkpt>
      <trkpt lat="41.79118" lon="9.24809">
        <ele>1183.54</ele>
        <time>2015-07-06T11:43:59Z</time>
      </trkpt>
      <trkpt lat="41.79114" lon="9.24809">
        <ele>1184.991</ele>
        <time>2015-07-06T11:44:14Z</time>
      </trkpt>
      <trkpt lat="41.79112" lon="9.24806">
        <ele>1185.622</ele>
        <time>2015-07-06T11:44:28Z</time>
      </trkpt>
      <trkpt lat="41.79108" lon="9.2481">
        <ele>1188.16</ele>
        <time>2015-07-06T11:44:42Z</time>
      </trkpt>
      <trkpt lat="41.79108" lon="9.24816">
        <ele>1189.439</ele>
        <time>2015-07-06T11:44:58Z</time>
      </trkpt>
      <trkpt lat="41.79108" lon="9.24821">
        <ele>1191.49</ele>
        <time>2015-07-06T11:45:11Z</time>
      </trkpt>
      <trkpt lat="41.79107" lon="9.2482">
        <ele>1193.114</ele>
        <time>2015-07-06T11:45:23Z</time>
      </trkpt>
      <trkpt lat="41.79102" lon="9.24819">
        <ele>1194.629</ele>
        <time>2015-07-06T11:45:39Z</time>
      </trkpt>
      <trkpt lat="41.79099" lon="9.24817">
        <ele>1196.234</ele>
        <time>2015-07-06T11:45:52Z</time>
      </trkpt>
      <trkpt lat="41.79096" lon="9.24819">
        <ele>1197.782</ele>
        <time>2015-07-06T11:46:05Z</time>
      </trkpt>
      <trkpt lat="41.79092" lon="9.24822">
        <ele>1199.851</ele>
        <time>2015-07-06T11:46:19Z</time>
      </trkpt>
      <trkpt lat="41.7909" lon="9.24827">
        <ele>1199.042</ele>
        <time>2015-07-06T11:46:37Z</time>
      </trkpt>
      <trkpt lat="41.79088" lon="9.24827">
        <ele>1199.22</ele>
        <time>2015-07-06T11:46:59Z</time>
      </trkpt>
      <trkpt lat="41.7909" lon="9.24826">
        <ele>1198.872</ele>
        <time>2015-07-06T11:48:21Z</time>
      </trkpt>
      <trkpt lat="41.79089" lon="9.24826">
        <ele>1199.353</ele>
        <time>2015-07-06T11:48:36Z</time>
      </trkpt>
      <trkpt lat="41.79089" lon="9.24827">
        <ele>1199.35</ele>
        <time>2015-07-06T11:48:49Z</time>
      </trkpt>
      <trkpt lat="41.79086" lon="9.24827">
        <ele>1197.96</ele>
        <time>2015-07-06T11:49:01Z</time>
      </trkpt>
      <trkpt lat="41.79083" lon="9.24827">
        <ele>1196.128</ele>
        <time>2015-07-06T11:49:12Z</time>
      </trkpt>
      <trkpt lat="41.79078" lon="9.24831">
        <ele>1193.81</ele>
        <time>2015-07-06T11:49:27Z</time>
      </trkpt>
      <trkpt lat="41.79075" lon="9.24829">
        <ele>1192.039</ele>
        <time>2015-07-06T11:49:35Z</time>
      </trkpt>
      <trkpt lat="41.79069" lon="9.24826">
        <ele>1189.738</ele>
        <time>2015-07-06T11:49:51Z</time>
      </trkpt>
      <trkpt lat="41.79064" lon="9.24826">
        <ele>1187.962</ele>
        <time>2015-07-06T11:50:05Z</time>
      </trkpt>
      <trkpt lat="41.79055" lon="9.24829">
        <ele>1185.222</ele>
        <time>2015-07-06T11:50:21Z</time>
      </trkpt>
      <trkpt lat="41.79054" lon="9.2483">
        <ele>1184.449</ele>
        <time>2015-07-06T11:50:35Z</time>
      </trkpt>
      <trkpt lat="41.79054" lon="9.24836">
        <ele>1183.998</ele>
        <time>2015-07-06T11:50:49Z</time>
      </trkpt>
      <trkpt lat="41.79053" lon="9.24837">
        <ele>1182.03</ele>
        <time>2015-07-06T11:51:02Z</time>
      </trkpt>
      <trkpt lat="41.79051" lon="9.24839">
        <ele>1179.788</ele>
        <time>2015-07-06T11:51:16Z</time>
      </trkpt>
      <trkpt lat="41.79049" lon="9.24836">
        <ele>1177.855</ele>
        <time>2015-07-06T11:51:31Z</time>
      </trkpt>
      <trkpt lat="41.79048" lon="9.24847">
        <ele>1175.196</ele>
        <time>2015-07-06T11:51:48Z</time>
      </trkpt>
      <trkpt lat="41.79046" lon="9.24853">
        <ele>1172.825</ele>
        <time>2015-07-06T11:52:04Z</time>
      </trkpt>
      <trkpt lat="41.79043" lon="9.2485">
        <ele>1171.828</ele>
        <time>2015-07-06T11:52:18Z</time>
      </trkpt>
      <trkpt lat="41.79041" lon="9.24846">
        <ele>1169.611</ele>
        <time>2015-07-06T11:52:31Z</time>
      </trkpt>
      <trkpt lat="41.7904" lon="9.24839">
        <ele>1168.75</ele>
        <time>2015-07-06T11:52:45Z</time>
      </trkpt>
      <trkpt lat="41.79036" lon="9.24841">
        <ele>1166.877</ele>
        <time>2015-07-06T11:52:58Z</time>
      </trkpt>
      <trkpt lat="41.7903" lon="9.24846">
        <ele>1165.583</ele>
        <time>2015-07-06T11:53:17Z</time>
      </trkpt>
      <trkpt lat="41.79025" lon="9.24843">
        <ele>1163.597</ele>
        <time>2015-07-06T11:53:31Z</time>
      </trkpt>
      <trkpt lat="41.79021" lon="9.24842">
        <ele>1161.23</ele>
        <time>2015-07-06T11:53:44Z</time>
      </trkpt>
      <trkpt lat="41.79022" lon="9.24842">
        <ele>1160.393</ele>
        <time>2015-07-06T11:53:56Z</time>
      </trkpt>
      <trkpt lat="41.79022" lon="9.24847">
        <ele>1158.72</ele>
        <time>2015-07-06T11:54:11Z</time>
      </trkpt>
      <trkpt lat="41.79017" lon="9.24857">
        <ele>1157.213</ele>
        <time>2015-07-06T11:54:27Z</time>
      </trkpt>
      <trkpt lat="41.79015" lon="9.24865">
        <ele>1156.275</ele>
        <time>2015-07-06T11:54:43Z</time>
      </trkpt>
      <trkpt lat="41.79016" lon="9.24865">
        <ele>1155.725</ele>
        <time>2015-07-06T11:54:58Z</time>
      </trkpt>
      <trkpt lat="41.79022" lon="9.24864">
        <ele>1154.537</ele>
        <time>2015-07-06T11:55:21Z</time>
      </trkpt>
      <trkpt lat="41.79025" lon="9.24878">
        <ele>1153.785</ele>
        <time>2015-07-06T11:55:35Z</time>
      </trkpt>
      <trkpt lat="41.79031" lon="9.24886">
        <ele>1152.686</ele>
        <time>2015-07-06T11:55:48Z</time>
      </trkpt>
      <trkpt lat="41.79037" lon="9.24888">
        <ele>1151.541</ele>
        <time>2015-07-06T11:56:02Z</time>
      </trkpt>
      <trkpt lat="41.7904" lon="9.24894">
        <ele>1149.954</ele>
        <time>2015-07-06T11:56:17Z</time>
      </trkpt>
      <trkpt lat="41.79038" lon="9.24896">
        <ele>1148.852</ele>
        <time>2015-07-06T11:56:30Z</time>
      </trkpt>
      <trkpt lat="41.79041" lon="9.24903">
        <ele>1146.59</ele>
        <time>2015-07-06T11:56:44Z</time>
      </trkpt>
      <trkpt lat="41.79046" lon="9.24904">
        <ele>1144.129</ele>
        <time>2015-07-06T11:57:00Z</time>
      </trkpt>
      <trkpt lat="41.79046" lon="9.24907">
        <ele>1142.11</ele>
        <time>2015-07-06T11:57:19Z</time>
      </trkpt>
      <trkpt lat="41.79047" lon="9.24913">
        <ele>1139.868</ele>
        <time>2015-07-06T11:57:34Z</time>
      </trkpt>
      <trkpt lat="41.79048" lon="9.24912">
        <ele>1137.563</ele>
        <time>2015-07-06T11:57:46Z</time>
      </trkpt>
      <trkpt lat="41.79042" lon="9.24914">
        <ele>1135.181</ele>
        <time>2015-07-06T11:57:58Z</time>
      </trkpt>
      <trkpt lat="41.79029" lon="9.24924">
        <ele>1134.572</ele>
        <time>2015-07-06T11:58:14Z</time>
      </trkpt>
      <trkpt lat="41.79022" lon="9.24923">
        <ele>1133.508</ele>
        <time>2015-07-06T11:58:31Z</time>
      </trkpt>
      <trkpt lat="41.79018" lon="9.24922">
        <ele>1132.003</ele>
        <time>2015-07-06T11:58:45Z</time>
      </trkpt>
      <trkpt lat="41.79016" lon="9.24915">
        <ele>1129.79</ele>
        <time>2015-07-06T11:59:00Z</time>
      </trkpt>
      <trkpt lat="41.79015" lon="9.24915">
        <ele>1128.503</ele>
        <time>2015-07-06T11:59:07Z</time>
      </trkpt>
      <trkpt lat="41.7901" lon="9.24913">
        <ele>1126.409</ele>
        <time>2015-07-06T11:59:21Z</time>
      </trkpt>
      <trkpt lat="41.79005" lon="9.24913">
        <ele>1125.099</ele>
        <time>2015-07-06T11:59:32Z</time>
      </trkpt>
      <trkpt lat="41.78998" lon="9.24913">
        <ele>1124.169</ele>
        <time>2015-07-06T11:59:48Z</time>
      </trkpt>
      <trkpt lat="41.78995" lon="9.2491">
        <ele>1122.273</ele>
        <time>2015-07-06T12:00:03Z</time>
      </trkpt>
      <trkpt lat="41.78991" lon="9.24909">
        <ele>1122.217</ele>
        <time>2015-07-06T12:00:21Z</time>
      </trkpt>
      <trkpt lat="41.78995" lon="9.24908">
        <ele>1121.88</ele>
        <time>2015-07-06T12:01:05Z</time>
      </trkpt>
      <trkpt lat="41.78991" lon="9.24905">
        <ele>1119.451</ele>
        <time>2015-07-06T12:01:19Z</time>
      </trkpt>
      <trkpt lat="41.78988" lon="9.24899">
        <ele>1117.233</ele>
        <time>2015-07-06T12:01:32Z</time>
      </trkpt>
      <trkpt lat="41.78982" lon="9.2489">
        <ele>1115.162</ele>
        <time>2015-07-06T12:01:46Z</time>
      </trkpt>
      <trkpt lat="41.78972" lon="9.2488">
        <ele>1112.069</ele>
        <time>2015-07-06T12:02:02Z</time>
      </trkpt>
      <trkpt lat="41.78971" lon="9.24879">
        <ele>1111.687</ele>
        <time>2015-07-06T12:02:03Z</time>
      </trkpt>
      <trkpt lat="41.78963" lon="9.24877">
        <ele>1111.099</ele>
        <time>2015-07-06T12:02:17Z</time>
      </trkpt>
      <trkpt lat="41.78961" lon="9.24875">
        <ele>1109.67</ele>
        <time>2015-07-06T12:02:28Z</time>
      </trkpt>
      <trkpt lat="41.78957" lon="9.24875">
        <ele>1107.843</ele>
        <time>2015-07-06T12:02:47Z</time>
      </trkpt>
      <trkpt lat="41.7895" lon="9.24877">
        <ele>1104.867</ele>
        <time>2015-07-06T12:03:05Z</time>
      </trkpt>
      <trkpt lat="41.7894" lon="9.24886">
        <ele>1101.238</ele>
        <time>2015-07-06T12:03:29Z</time>
      </trkpt>
      <trkpt lat="41.78947" lon="9.24883">
        <ele>1099.226</ele>
        <time>2015-07-06T12:03:46Z</time>
      </trkpt>
      <trkpt lat="41.78954" lon="9.2489">
        <ele>1099.178</ele>
        <time>2015-07-06T12:03:59Z</time>
      </trkpt>
      <trkpt lat="41.7895" lon="9.24903">
        <ele>1095.929</ele>
        <time>2015-07-06T12:04:13Z</time>
      </trkpt>
      <trkpt lat="41.78948" lon="9.24905">
        <ele>1096.031</ele>
        <time>2015-07-06T12:04:15Z</time>
      </trkpt>
      <trkpt lat="41.78933" lon="9.24927">
        <ele>1093.939</ele>
        <time>2015-07-06T12:04:27Z</time>
      </trkpt>
      <trkpt lat="41.78922" lon="9.24942">
        <ele>1093.648</ele>
        <time>2015-07-06T12:04:38Z</time>
      </trkpt>
      <trkpt lat="41.78943" lon="9.24921">
        <ele>1093.755</ele>
        <time>2015-07-06T12:04:52Z</time>
      </trkpt>
      <trkpt lat="41.78973" lon="9.24883">
        <ele>1095.324</ele>
        <time>2015-07-06T12:05:10Z</time>
      </trkpt>
      <trkpt lat="41.78981" lon="9.24877">
        <ele>1096.671</ele>
        <time>2015-07-06T12:05:22Z</time>
      </trkpt>
      <trkpt lat="41.78979" lon="9.24877">
        <ele>1096.203</ele>
        <time>2015-07-06T12:05:50Z</time>
      </trkpt>
      <trkpt lat="41.78986" lon="9.24889">
        <ele>1099.402</ele>
        <time>2015-07-06T12:06:04Z</time>
      </trkpt>
      <trkpt lat="41.78986" lon="9.24915">
        <ele>1101.478</ele>
        <time>2015-07-06T12:06:29Z</time>
      </trkpt>
      <trkpt lat="41.78985" lon="9.24934">
        <ele>1102.254</ele>
        <time>2015-07-06T12:06:48Z</time>
      </trkpt>
      <trkpt lat="41.78985" lon="9.24938">
        <ele>1101.183</ele>
        <time>2015-07-06T12:06:54Z</time>
      </trkpt>
      <trkpt lat="41.78995" lon="9.24943">
        <ele>1100.992</ele>
        <time>2015-07-06T12:07:11Z</time>
      </trkpt>
      <trkpt lat="41.79" lon="9.24946">
        <ele>1100.905</ele>
        <time>2015-07-06T12:07:28Z</time>
      </trkpt>
      <trkpt lat="41.79002" lon="9.24951">
        <ele>1099.605</ele>
        <time>2015-07-06T12:07:48Z</time>
      </trkpt>
      <trkpt lat="41.78999" lon="9.2495">
        <ele>1098.177</ele>
        <time>2015-07-06T12:08:01Z</time>
      </trkpt>
      <trkpt lat="41.78994" lon="9.24952">
        <ele>1096.766</ele>
        <time>2015-07-06T12:08:16Z</time>
      </trkpt>
      <trkpt lat="41.79001" lon="9.24952">
        <ele>1095.33</ele>
        <time>2015-07-06T12:08:29Z</time>
      </trkpt>
      <trkpt lat="41.79005" lon="9.24955">
        <ele>1094.423</ele>
        <time>2015-07-06T12:08:40Z</time>
      </trkpt>
      <trkpt lat="41.79008" lon="9.24959">
        <ele>1093.053</ele>
        <time>2015-07-06T12:08:51Z</time>
      </trkpt>
      <trkpt lat="41.79008" lon="9.2496">
        <ele>1091.436</ele>
        <time>2015-07-06T12:08:58Z</time>
      </trkpt>
      <trkpt lat="41.79007" lon="9.24962">
        <ele>1088.972</ele>
        <time>2015-07-06T12:09:05Z</time>
      </trkpt>
      <trkpt lat="41.79006" lon="9.24966">
        <ele>1087.809</ele>
        <time>2015-07-06T12:09:11Z</time>
      </trkpt>
      <trkpt lat="41.79011" lon="9.24965">
        <ele>1086.903</ele>
        <time>2015-07-06T12:09:23Z</time>
      </trkpt>
      <trkpt lat="41.79018" lon="9.24966">
        <ele>1085.888</ele>
        <time>2015-07-06T12:09:37Z</time>
      </trkpt>
      <trkpt lat="41.79028" lon="9.24968">
        <ele>1085.67</ele>
        <time>2015-07-06T12:09:49Z</time>
      </trkpt>
      <trkpt lat="41.7903" lon="9.24967">
        <ele>1085.344</ele>
        <time>2015-07-06T12:09:52Z</time>
      </trkpt>
      <trkpt lat="41.79035" lon="9.24966">
        <ele>1084.466</ele>
        <time>2015-07-06T12:10:06Z</time>
      </trkpt>
      <trkpt lat="41.79041" lon="9.24968">
        <ele>1082.968</ele>
        <time>2015-07-06T12:10:17Z</time>
      </trkpt>
      <trkpt lat="41.79039" lon="9.24977">
        <ele>1080.669</ele>
        <time>2015-07-06T12:10:30Z</time>
      </trkpt>
      <trkpt lat="41.79034" lon="9.24985">
        <ele>1079.753</ele>
        <time>2015-07-06T12:10:40Z</time>
      </trkpt>
      <trkpt lat="41.79029" lon="9.24993">
        <ele>1079.705</ele>
        <time>2015-07-06T12:10:52Z</time>
      </trkpt>
      <trkpt lat="41.7902" lon="9.25">
        <ele>1078.33</ele>
        <time>2015-07-06T12:11:03Z</time>
      </trkpt>
      <trkpt lat="41.79015" lon="9.25003">
        <ele>1076.236</ele>
        <time>2015-07-06T12:11:14Z</time>
      </trkpt>
      <trkpt lat="41.79021" lon="9.24997">
        <ele>1074.75</ele>
        <time>2015-07-06T12:11:33Z</time>
      </trkpt>
      <trkpt lat="41.79029" lon="9.24987">
        <ele>1072.738</ele>
        <time>2015-07-06T12:11:51Z</time>
      </trkpt>
      <trkpt lat="41.79033" lon="9.24985">
        <ele>1073.27</ele>
        <time>2015-07-06T12:11:53Z</time>
      </trkpt>
      <trkpt lat="41.79032" lon="9.25002">
        <ele>1071.844</ele>
        <time>2015-07-06T12:12:08Z</time>
      </trkpt>
      <trkpt lat="41.79021" lon="9.25018">
        <ele>1069.677</ele>
        <time>2015-07-06T12:12:17Z</time>
      </trkpt>
      <trkpt lat="41.79009" lon="9.25029">
        <ele>1068.483</ele>
        <time>2015-07-06T12:12:24Z</time>
      </trkpt>
      <trkpt lat="41.79028" lon="9.25019">
        <ele>1067.838</ele>
        <time>2015-07-06T12:12:36Z</time>
      </trkpt>
      <trkpt lat="41.79037" lon="9.25009">
        <ele>1064.608</ele>
        <time>2015-07-06T12:12:50Z</time>
      </trkpt>
      <trkpt lat="41.79035" lon="9.25013">
        <ele>1063.027</ele>
        <time>2015-07-06T12:13:04Z</time>
      </trkpt>
      <trkpt lat="41.79031" lon="9.25012">
        <ele>1061.854</ele>
        <time>2015-07-06T12:13:18Z</time>
      </trkpt>
      <trkpt lat="41.79031" lon="9.25008">
        <ele>1058.664</ele>
        <time>2015-07-06T12:13:31Z</time>
      </trkpt>
      <trkpt lat="41.79023" lon="9.25018">
        <ele>1058.467</ele>
        <time>2015-07-06T12:13:45Z</time>
      </trkpt>
      <trkpt lat="41.79027" lon="9.2502">
        <ele>1056.691</ele>
        <time>2015-07-06T12:14:01Z</time>
      </trkpt>
      <trkpt lat="41.79031" lon="9.25019">
        <ele>1056.003</ele>
        <time>2015-07-06T12:14:16Z</time>
      </trkpt>
      <trkpt lat="41.79028" lon="9.2503">
        <ele>1053.888</ele>
        <time>2015-07-06T12:14:30Z</time>
      </trkpt>
      <trkpt lat="41.79027" lon="9.25043">
        <ele>1050.815</ele>
        <time>2015-07-06T12:14:45Z</time>
      </trkpt>
      <trkpt lat="41.79038" lon="9.25042">
        <ele>1050.697</ele>
        <time>2015-07-06T12:14:54Z</time>
      </trkpt>
      <trkpt lat="41.79047" lon="9.25047">
        <ele>1049.971</ele>
        <time>2015-07-06T12:15:06Z</time>
      </trkpt>
      <trkpt lat="41.79051" lon="9.25051">
        <ele>1048.153</ele>
        <time>2015-07-06T12:15:20Z</time>
      </trkpt>
      <trkpt lat="41.79061" lon="9.2505">
        <ele>1047.291</ele>
        <time>2015-07-06T12:15:31Z</time>
      </trkpt>
      <trkpt lat="41.79071" lon="9.25053">
        <ele>1046.632</ele>
        <time>2015-07-06T12:15:46Z</time>
      </trkpt>
      <trkpt lat="41.79083" lon="9.2506">
        <ele>1047.192</ele>
        <time>2015-07-06T12:16:02Z</time>
      </trkpt>
      <trkpt lat="41.79089" lon="9.25064">
        <ele>1046.938</ele>
        <time>2015-07-06T12:16:13Z</time>
      </trkpt>
      <trkpt lat="41.79091" lon="9.25078">
        <ele>1047.467</ele>
        <time>2015-07-06T12:16:26Z</time>
      </trkpt>
      <trkpt lat="41.79097" lon="9.25082">
        <ele>1049.079</ele>
        <time>2015-07-06T12:16:39Z</time>
      </trkpt>
      <trkpt lat="41.79099" lon="9.25089">
        <ele>1049.332</ele>
        <time>2015-07-06T12:16:51Z</time>
      </trkpt>
      <trkpt lat="41.79104" lon="9.25091">
        <ele>1048.374</ele>
        <time>2015-07-06T12:17:02Z</time>
      </trkpt>
      <trkpt lat="41.7911" lon="9.25087">
        <ele>1047.678</ele>
        <time>2015-07-06T12:17:30Z</time>
      </trkpt>
      <trkpt lat="41.79112" lon="9.25087">
        <ele>1047.765</ele>
        <time>2015-07-06T12:18:16Z</time>
      </trkpt>
      <trkpt lat="41.7912" lon="9.25083">
        <ele>1047.015</ele>
        <time>2015-07-06T12:19:35Z</time>
      </trkpt>
      <trkpt lat="41.79122" lon="9.2509">
        <ele>1048.46</ele>
        <time>2015-07-06T12:19:51Z</time>
      </trkpt>
      <trkpt lat="41.79123" lon="9.25091">
        <ele>1046.864</ele>
        <time>2015-07-06T12:20:06Z</time>
      </trkpt>
      <trkpt lat="41.79128" lon="9.25091">
        <ele>1045.223</ele>
        <time>2015-07-06T12:20:17Z</time>
      </trkpt>
      <trkpt lat="41.79129" lon="9.25095">
        <ele>1045.324</ele>
        <time>2015-07-06T12:20:30Z</time>
      </trkpt>
      <trkpt lat="41.79122" lon="9.25104">
        <ele>1042.944</ele>
        <time>2015-07-06T12:20:43Z</time>
      </trkpt>
      <trkpt lat="41.79123" lon="9.25105">
        <ele>1041.178</ele>
        <time>2015-07-06T12:20:57Z</time>
      </trkpt>
      <trkpt lat="41.79128" lon="9.25116">
        <ele>1040.861</ele>
        <time>2015-07-06T12:21:09Z</time>
      </trkpt>
      <trkpt lat="41.79136" lon="9.25121">
        <ele>1039.59</ele>
        <time>2015-07-06T12:21:23Z</time>
      </trkpt>
      <trkpt lat="41.79137" lon="9.25122">
        <ele>1039.224</ele>
        <time>2015-07-06T12:21:24Z</time>
      </trkpt>
      <trkpt lat="41.79144" lon="9.25129">
        <ele>1039.592</ele>
        <time>2015-07-06T12:21:38Z</time>
      </trkpt>
      <trkpt lat="41.79147" lon="9.25142">
        <ele>1038.642</ele>
        <time>2015-07-06T12:21:53Z</time>
      </trkpt>
      <trkpt lat="41.79149" lon="9.25151">
        <ele>1037.624</ele>
        <time>2015-07-06T12:22:04Z</time>
      </trkpt>
      <trkpt lat="41.79153" lon="9.25164">
        <ele>1034.593</ele>
        <time>2015-07-06T12:22:20Z</time>
      </trkpt>
      <trkpt lat="41.79154" lon="9.25171">
        <ele>1032.56</ele>
        <time>2015-07-06T12:22:33Z</time>
      </trkpt>
      <trkpt lat="41.7916" lon="9.25179">
        <ele>1031.351</ele>
        <time>2015-07-06T12:22:45Z</time>
      </trkpt>
      <trkpt lat="41.79168" lon="9.25188">
        <ele>1029.208</ele>
        <time>2015-07-06T12:22:59Z</time>
      </trkpt>
      <trkpt lat="41.79173" lon="9.25204">
        <ele>1028.62</ele>
        <time>2015-07-06T12:23:13Z</time>
      </trkpt>
      <trkpt lat="41.79174" lon="9.25211">
        <ele>1029.815</ele>
        <time>2015-07-06T12:23:25Z</time>
      </trkpt>
      <trkpt lat="41.79185" lon="9.25209">
        <ele>1027.538</ele>
        <time>2015-07-06T12:23:39Z</time>
      </trkpt>
      <trkpt lat="41.7919" lon="9.2521">
        <ele>1026.132</ele>
        <time>2015-07-06T12:23:53Z</time>
      </trkpt>
      <trkpt lat="41.79192" lon="9.25223">
        <ele>1024.952</ele>
        <time>2015-07-06T12:24:06Z</time>
      </trkpt>
      <trkpt lat="41.792" lon="9.25238">
        <ele>1024.764</ele>
        <time>2015-07-06T12:24:21Z</time>
      </trkpt>
      <trkpt lat="41.79198" lon="9.25244">
        <ele>1023.907</ele>
        <time>2015-07-06T12:24:25Z</time>
      </trkpt>
      <trkpt lat="41.792" lon="9.25262">
        <ele>1023.098</ele>
        <time>2015-07-06T12:24:38Z</time>
      </trkpt>
      <trkpt lat="41.79201" lon="9.25273">
        <ele>1023.631</ele>
        <time>2015-07-06T12:24:49Z</time>
      </trkpt>
      <trkpt lat="41.79201" lon="9.25284">
        <ele>1023.893</ele>
        <time>2015-07-06T12:25:00Z</time>
      </trkpt>
      <trkpt lat="41.79208" lon="9.25294">
        <ele>1023.078</ele>
        <time>2015-07-06T12:25:12Z</time>
      </trkpt>
      <trkpt lat="41.79211" lon="9.25302">
        <ele>1024.783</ele>
        <time>2015-07-06T12:25:27Z</time>
      </trkpt>
      <trkpt lat="41.79219" lon="9.253">
        <ele>1025.876</ele>
        <time>2015-07-06T12:25:42Z</time>
      </trkpt>
      <trkpt lat="41.79227" lon="9.25298">
        <ele>1026.309</ele>
        <time>2015-07-06T12:25:56Z</time>
      </trkpt>
      <trkpt lat="41.79229" lon="9.25297">
        <ele>1026.168</ele>
        <time>2015-07-06T12:26:04Z</time>
      </trkpt>
      <trkpt lat="41.79236" lon="9.25308">
        <ele>1025.452</ele>
        <time>2015-07-06T12:26:19Z</time>
      </trkpt>
      <trkpt lat="41.79239" lon="9.25331">
        <ele>1023.62</ele>
        <time>2015-07-06T12:26:36Z</time>
      </trkpt>
      <trkpt lat="41.79238" lon="9.25345">
        <ele>1021.871</ele>
        <time>2015-07-06T12:26:49Z</time>
      </trkpt>
      <trkpt lat="41.79234" lon="9.25356">
        <ele>1020.785</ele>
        <time>2015-07-06T12:27:02Z</time>
      </trkpt>
      <trkpt lat="41.79233" lon="9.25369">
        <ele>1018.934</ele>
        <time>2015-07-06T12:27:17Z</time>
      </trkpt>
      <trkpt lat="41.79235" lon="9.25378">
        <ele>1017.76</ele>
        <time>2015-07-06T12:27:30Z</time>
      </trkpt>
      <trkpt lat="41.79235" lon="9.25382">
        <ele>1017.197</ele>
        <time>2015-07-06T12:27:35Z</time>
      </trkpt>
      <trkpt lat="41.79236" lon="9.25385">
        <ele>1017.191</ele>
        <time>2015-07-06T12:27:37Z</time>
      </trkpt>
      <trkpt lat="41.7924" lon="9.25398">
        <ele>1016.887</ele>
        <time>2015-07-06T12:27:55Z</time>
      </trkpt>
      <trkpt lat="41.79242" lon="9.25402">
        <ele>1016.778</ele>
        <time>2015-07-06T12:28:08Z</time>
      </trkpt>
      <trkpt lat="41.79242" lon="9.25403">
        <ele>1016.785</ele>
        <time>2015-07-06T12:28:09Z</time>
      </trkpt>
      <trkpt lat="41.79242" lon="9.2541">
        <ele>1018.338</ele>
        <time>2015-07-06T12:28:27Z</time>
      </trkpt>
      <trkpt lat="41.79243" lon="9.2542">
        <ele>1019.586</ele>
        <time>2015-07-06T12:28:41Z</time>
      </trkpt>
      <trkpt lat="41.79255" lon="9.25434">
        <ele>1020.191</ele>
        <time>2015-07-06T12:28:55Z</time>
      </trkpt>
      <trkpt lat="41.79255" lon="9.25436">
        <ele>1021.229</ele>
        <time>2015-07-06T12:28:57Z</time>
      </trkpt>
      <trkpt lat="41.79252" lon="9.25454">
        <ele>1020.518</ele>
        <time>2015-07-06T12:29:14Z</time>
      </trkpt>
      <trkpt lat="41.79243" lon="9.25458">
        <ele>1020.021</ele>
        <time>2015-07-06T12:29:26Z</time>
      </trkpt>
      <trkpt lat="41.79238" lon="9.25462">
        <ele>1019.817</ele>
        <time>2015-07-06T12:29:35Z</time>
      </trkpt>
      <trkpt lat="41.79237" lon="9.25474">
        <ele>1018.752</ele>
        <time>2015-07-06T12:29:46Z</time>
      </trkpt>
      <trkpt lat="41.79233" lon="9.25483">
        <ele>1019.416</ele>
        <time>2015-07-06T12:29:59Z</time>
      </trkpt>
      <trkpt lat="41.79229" lon="9.25496">
        <ele>1021.329</ele>
        <time>2015-07-06T12:30:19Z</time>
      </trkpt>
      <trkpt lat="41.79223" lon="9.25505">
        <ele>1021.714</ele>
        <time>2015-07-06T12:30:33Z</time>
      </trkpt>
      <trkpt lat="41.79218" lon="9.25513">
        <ele>1022.39</ele>
        <time>2015-07-06T12:30:46Z</time>
      </trkpt>
      <trkpt lat="41.79208" lon="9.25517">
        <ele>1023.361</ele>
        <time>2015-07-06T12:31:02Z</time>
      </trkpt>
      <trkpt lat="41.79203" lon="9.2552">
        <ele>1023.501</ele>
        <time>2015-07-06T12:31:12Z</time>
      </trkpt>
      <trkpt lat="41.79199" lon="9.25531">
        <ele>1024.83</ele>
        <time>2015-07-06T12:31:25Z</time>
      </trkpt>
      <trkpt lat="41.79195" lon="9.25541">
        <ele>1025.262</ele>
        <time>2015-07-06T12:31:37Z</time>
      </trkpt>
      <trkpt lat="41.79195" lon="9.25549">
        <ele>1026.557</ele>
        <time>2015-07-06T12:31:49Z</time>
      </trkpt>
      <trkpt lat="41.79191" lon="9.25562">
        <ele>1027.006</ele>
        <time>2015-07-06T12:32:03Z</time>
      </trkpt>
      <trkpt lat="41.79191" lon="9.25574">
        <ele>1028.162</ele>
        <time>2015-07-06T12:32:16Z</time>
      </trkpt>
      <trkpt lat="41.7919" lon="9.25582">
        <ele>1029.276</ele>
        <time>2015-07-06T12:32:30Z</time>
      </trkpt>
      <trkpt lat="41.79194" lon="9.25586">
        <ele>1029.917</ele>
        <time>2015-07-06T12:32:45Z</time>
      </trkpt>
      <trkpt lat="41.79196" lon="9.25596">
        <ele>1030.626</ele>
        <time>2015-07-06T12:33:01Z</time>
      </trkpt>
      <trkpt lat="41.79197" lon="9.25602">
        <ele>1031.996</ele>
        <time>2015-07-06T12:33:13Z</time>
      </trkpt>
      <trkpt lat="41.79198" lon="9.25611">
        <ele>1031.89</ele>
        <time>2015-07-06T12:33:27Z</time>
      </trkpt>
      <trkpt lat="41.79204" lon="9.25625">
        <ele>1031.906</ele>
        <time>2015-07-06T12:33:42Z</time>
      </trkpt>
      <trkpt lat="41.79202" lon="9.25634">
        <ele>1031.124</ele>
        <time>2015-07-06T12:33:53Z</time>
      </trkpt>
      <trkpt lat="41.79199" lon="9.25644">
        <ele>1029.897</ele>
        <time>2015-07-06T12:34:07Z</time>
      </trkpt>
      <trkpt lat="41.79203" lon="9.25658">
        <ele>1030.615</ele>
        <time>2015-07-06T12:34:22Z</time>
      </trkpt>
      <trkpt lat="41.79208" lon="9.25677">
        <ele>1030.963</ele>
        <time>2015-07-06T12:34:38Z</time>
      </trkpt>
      <trkpt lat="41.79211" lon="9.25699">
        <ele>1032.008</ele>
        <time>2015-07-06T12:34:55Z</time>
      </trkpt>
      <trkpt lat="41.79214" lon="9.25714">
        <ele>1032.89</ele>
        <time>2015-07-06T12:35:10Z</time>
      </trkpt>
      <trkpt lat="41.79218" lon="9.25727">
        <ele>1034.059</ele>
        <time>2015-07-06T12:35:27Z</time>
      </trkpt>
      <trkpt lat="41.79226" lon="9.25732">
        <ele>1034.385</ele>
        <time>2015-07-06T12:35:42Z</time>
      </trkpt>
      <trkpt lat="41.79228" lon="9.25738">
        <ele>1035.656</ele>
        <time>2015-07-06T12:35:55Z</time>
      </trkpt>
      <trkpt lat="41.79231" lon="9.25746">
        <ele>1036.665</ele>
        <time>2015-07-06T12:36:09Z</time>
      </trkpt>
      <trkpt lat="41.79232" lon="9.2575">
        <ele>1036.992</ele>
        <time>2015-07-06T12:36:22Z</time>
      </trkpt>
      <trkpt lat="41.79235" lon="9.25759">
        <ele>1040.012</ele>
        <time>2015-07-06T12:36:36Z</time>
      </trkpt>
      <trkpt lat="41.79235" lon="9.25766">
        <ele>1039.482</ele>
        <time>2015-07-06T12:36:50Z</time>
      </trkpt>
      <trkpt lat="41.79239" lon="9.25772">
        <ele>1041.317</ele>
        <time>2015-07-06T12:37:06Z</time>
      </trkpt>
      <trkpt lat="41.79243" lon="9.25774">
        <ele>1042.245</ele>
        <time>2015-07-06T12:37:21Z</time>
      </trkpt>
      <trkpt lat="41.79243" lon="9.25773">
        <ele>1040.665</ele>
        <time>2015-07-06T12:37:28Z</time>
      </trkpt>
      <trkpt lat="41.79243" lon="9.25773">
        <ele>1042.391</ele>
        <time>2015-07-06T12:37:31Z</time>
      </trkpt>
      <trkpt lat="41.79241" lon="9.25768">
        <ele>1040.566</ele>
        <time>2015-07-06T12:38:00Z</time>
      </trkpt>
      <trkpt lat="41.79238" lon="9.25772">
        <ele>1040.111</ele>
        <time>2015-07-06T12:39:33Z</time>
      </trkpt>
      <trkpt lat="41.79242" lon="9.25775">
        <ele>1040.575</ele>
        <time>2015-07-06T12:40:34Z</time>
      </trkpt>
      <trkpt lat="41.79239" lon="9.25771">
        <ele>1042.386</ele>
        <time>2015-07-06T12:42:24Z</time>
      </trkpt>
      <trkpt lat="41.79239" lon="9.2577">
        <ele>1041.897</ele>
        <time>2015-07-06T12:42:25Z</time>
      </trkpt>
      <trkpt lat="41.79247" lon="9.25767">
        <ele>1036.325</ele>
        <time>2015-07-06T12:42:51Z</time>
      </trkpt>
      <trkpt lat="41.79246" lon="9.25767">
        <ele>1038.366</ele>
        <time>2015-07-06T12:42:52Z</time>
      </trkpt>
      <trkpt lat="41.79246" lon="9.25768">
        <ele>1047.285</ele>
        <time>2015-07-06T12:42:53Z</time>
      </trkpt>
      <trkpt lat="41.79245" lon="9.25767">
        <ele>1041.844</ele>
        <time>2015-07-06T12:42:54Z</time>
      </trkpt>
      <trkpt lat="41.79244" lon="9.25772">
        <ele>1041.645</ele>
        <time>2015-07-06T12:43:04Z</time>
      </trkpt>
      <trkpt lat="41.79244" lon="9.25775">
        <ele>1040.633</ele>
        <time>2015-07-06T12:43:33Z</time>
      </trkpt>
      <trkpt lat="41.79241" lon="9.25777">
        <ele>1039.824</ele>
        <time>2015-07-06T12:43:45Z</time>
      </trkpt>
      <trkpt lat="41.79237" lon="9.25777">
        <ele>1039.932</ele>
        <time>2015-07-06T12:43:59Z</time>
      </trkpt>
      <trkpt lat="41.79238" lon="9.25782">
        <ele>1040.976</ele>
        <time>2015-07-06T12:44:11Z</time>
      </trkpt>
      <trkpt lat="41.79243" lon="9.25785">
        <ele>1041.801</ele>
        <time>2015-07-06T12:44:27Z</time>
      </trkpt>
      <trkpt lat="41.79245" lon="9.25789">
        <ele>1042.851</ele>
        <time>2015-07-06T12:44:40Z</time>
      </trkpt>
      <trkpt lat="41.79251" lon="9.25794">
        <ele>1044.486</ele>
        <time>2015-07-06T12:44:52Z</time>
      </trkpt>
      <trkpt lat="41.79254" lon="9.25799">
        <ele>1046.129</ele>
        <time>2015-07-06T12:45:05Z</time>
      </trkpt>
      <trkpt lat="41.79258" lon="9.25801">
        <ele>1046.314</ele>
        <time>2015-07-06T12:45:16Z</time>
      </trkpt>
      <trkpt lat="41.79262" lon="9.25808">
        <ele>1047.416</ele>
        <time>2015-07-06T12:45:31Z</time>
      </trkpt>
      <trkpt lat="41.79267" lon="9.25816">
        <ele>1048.441</ele>
        <time>2015-07-06T12:45:47Z</time>
      </trkpt>
      <trkpt lat="41.79272" lon="9.25821">
        <ele>1048.783</ele>
        <time>2015-07-06T12:46:00Z</time>
      </trkpt>
      <trkpt lat="41.79278" lon="9.25823">
        <ele>1050.014</ele>
        <time>2015-07-06T12:46:13Z</time>
      </trkpt>
      <trkpt lat="41.79288" lon="9.25824">
        <ele>1050.723</ele>
        <time>2015-07-06T12:46:30Z</time>
      </trkpt>
      <trkpt lat="41.79299" lon="9.25822">
        <ele>1051.123</ele>
        <time>2015-07-06T12:46:46Z</time>
      </trkpt>
      <trkpt lat="41.79306" lon="9.2582">
        <ele>1051.837</ele>
        <time>2015-07-06T12:46:56Z</time>
      </trkpt>
      <trkpt lat="41.79322" lon="9.25815">
        <ele>1053.937</ele>
        <time>2015-07-06T12:47:15Z</time>
      </trkpt>
      <trkpt lat="41.79338" lon="9.25804">
        <ele>1053.962</ele>
        <time>2015-07-06T12:47:34Z</time>
      </trkpt>
      <trkpt lat="41.79357" lon="9.25798">
        <ele>1053.967</ele>
        <time>2015-07-06T12:47:54Z</time>
      </trkpt>
      <trkpt lat="41.79372" lon="9.25806">
        <ele>1054.65</ele>
        <time>2015-07-06T12:48:12Z</time>
      </trkpt>
      <trkpt lat="41.79385" lon="9.2581">
        <ele>1054.276</ele>
        <time>2015-07-06T12:48:30Z</time>
      </trkpt>
      <trkpt lat="41.79388" lon="9.25816">
        <ele>1054.321</ele>
        <time>2015-07-06T12:48:44Z</time>
      </trkpt>
      <trkpt lat="41.79387" lon="9.25818">
        <ele>1055.234</ele>
        <time>2015-07-06T12:48:51Z</time>
      </trkpt>
      <trkpt lat="41.7939" lon="9.25815">
        <ele>1055.931</ele>
        <time>2015-07-06T12:49:08Z</time>
      </trkpt>
      <trkpt lat="41.7939" lon="9.25817">
        <ele>1054.303</ele>
        <time>2015-07-06T12:49:22Z</time>
      </trkpt>
      <trkpt lat="41.79388" lon="9.25812">
        <ele>1054.198</ele>
        <time>2015-07-06T12:50:07Z</time>
      </trkpt>
      <trkpt lat="41.79389" lon="9.25812">
        <ele>1053.141</ele>
        <time>2015-07-06T12:51:42Z</time>
      </trkpt>
      <trkpt lat="41.79396" lon="9.25813">
        <ele>1053.314</ele>
        <time>2015-07-06T12:52:16Z</time>
      </trkpt>
      <trkpt lat="41.79385" lon="9.2582">
        <ele>1052.537</ele>
        <time>2015-07-06T12:53:06Z</time>
      </trkpt>
      <trkpt lat="41.79385" lon="9.25821">
        <ele>1053.086</ele>
        <time>2015-07-06T12:53:40Z</time>
      </trkpt>
      <trkpt lat="41.79389" lon="9.25817">
        <ele>1053.917</ele>
        <time>2015-07-06T12:53:52Z</time>
      </trkpt>
      <trkpt lat="41.79387" lon="9.2582">
        <ele>1054.299</ele>
        <time>2015-07-06T12:54:05Z</time>
      </trkpt>
      <trkpt lat="41.79387" lon="9.25819">
        <ele>1054.336</ele>
        <time>2015-07-06T12:54:06Z</time>
      </trkpt>
      <trkpt lat="41.7939" lon="9.25814">
        <ele>1054.645</ele>
        <time>2015-07-06T12:54:32Z</time>
      </trkpt>
      <trkpt lat="41.79391" lon="9.25829">
        <ele>1056.623</ele>
        <time>2015-07-06T12:54:47Z</time>
      </trkpt>
      <trkpt lat="41.794" lon="9.25851">
        <ele>1055.77</ele>
        <time>2015-07-06T12:55:05Z</time>
      </trkpt>
      <trkpt lat="41.79412" lon="9.25866">
        <ele>1054.761</ele>
        <time>2015-07-06T12:55:25Z</time>
      </trkpt>
      <trkpt lat="41.79415" lon="9.25875">
        <ele>1053.938</ele>
        <time>2015-07-06T12:55:38Z</time>
      </trkpt>
      <trkpt lat="41.79416" lon="9.25885">
        <ele>1054.739</ele>
        <time>2015-07-06T12:55:48Z</time>
      </trkpt>
      <trkpt lat="41.79417" lon="9.25895">
        <ele>1056.128</ele>
        <time>2015-07-06T12:56:00Z</time>
      </trkpt>
      <trkpt lat="41.79418" lon="9.25916">
        <ele>1056.581</ele>
        <time>2015-07-06T12:56:17Z</time>
      </trkpt>
      <trkpt lat="41.79424" lon="9.25929">
        <ele>1057.16</ele>
        <time>2015-07-06T12:56:33Z</time>
      </trkpt>
      <trkpt lat="41.79431" lon="9.25935">
        <ele>1059.213</ele>
        <time>2015-07-06T12:56:48Z</time>
      </trkpt>
      <trkpt lat="41.79436" lon="9.25939">
        <ele>1062.046</ele>
        <time>2015-07-06T12:57:02Z</time>
      </trkpt>
      <trkpt lat="41.79441" lon="9.25945">
        <ele>1062.958</ele>
        <time>2015-07-06T12:57:18Z</time>
      </trkpt>
      <trkpt lat="41.79443" lon="9.25956">
        <ele>1064.203</ele>
        <time>2015-07-06T12:57:36Z</time>
      </trkpt>
      <trkpt lat="41.79445" lon="9.25958">
        <ele>1064.933</ele>
        <time>2015-07-06T12:57:50Z</time>
      </trkpt>
      <trkpt lat="41.79442" lon="9.25957">
        <ele>1063.575</ele>
        <time>2015-07-06T12:58:22Z</time>
      </trkpt>
      <trkpt lat="41.79437" lon="9.25955">
        <ele>1063.001</ele>
        <time>2015-07-06T12:58:37Z</time>
      </trkpt>
      <trkpt lat="41.79422" lon="9.25952">
        <ele>1063.163</ele>
        <time>2015-07-06T12:58:54Z</time>
      </trkpt>
      <trkpt lat="41.79417" lon="9.25952">
        <ele>1062.854</ele>
        <time>2015-07-06T12:59:07Z</time>
      </trkpt>
      <trkpt lat="41.79413" lon="9.25959">
        <ele>1063.199</ele>
        <time>2015-07-06T12:59:53Z</time>
      </trkpt>
      <trkpt lat="41.79407" lon="9.25972">
        <ele>1064.169</ele>
        <time>2015-07-06T13:00:09Z</time>
      </trkpt>
      <trkpt lat="41.79403" lon="9.25979">
        <ele>1064.044</ele>
        <time>2015-07-06T13:00:24Z</time>
      </trkpt>
      <trkpt lat="41.79402" lon="9.25994">
        <ele>1064.547</ele>
        <time>2015-07-06T13:00:39Z</time>
      </trkpt>
      <trkpt lat="41.79395" lon="9.26001">
        <ele>1064.939</ele>
        <time>2015-07-06T13:00:56Z</time>
      </trkpt>
      <trkpt lat="41.79393" lon="9.26005">
        <ele>1064.682</ele>
        <time>2015-07-06T13:01:21Z</time>
      </trkpt>
      <trkpt lat="41.79392" lon="9.26005">
        <ele>1064.852</ele>
        <time>2015-07-06T13:01:47Z</time>
      </trkpt>
      <trkpt lat="41.79398" lon="9.26001">
        <ele>1063.714</ele>
        <time>2015-07-06T13:02:02Z</time>
      </trkpt>
      <trkpt lat="41.79407" lon="9.26011">
        <ele>1065.015</ele>
        <time>2015-07-06T13:02:19Z</time>
      </trkpt>
      <trkpt lat="41.7941" lon="9.2602">
        <ele>1063.425</ele>
        <time>2015-07-06T13:02:35Z</time>
      </trkpt>
      <trkpt lat="41.79405" lon="9.26037">
        <ele>1061.81</ele>
        <time>2015-07-06T13:02:53Z</time>
      </trkpt>
      <trkpt lat="41.79399" lon="9.26048">
        <ele>1060.654</ele>
        <time>2015-07-06T13:03:13Z</time>
      </trkpt>
      <trkpt lat="41.79399" lon="9.26048">
        <ele>1060.643</ele>
        <time>2015-07-06T13:03:18Z</time>
      </trkpt>
      <trkpt lat="41.79401" lon="9.26049">
        <ele>1058.953</ele>
        <time>2015-07-06T13:03:47Z</time>
      </trkpt>
      <trkpt lat="41.79397" lon="9.26048">
        <ele>1058.751</ele>
        <time>2015-07-06T13:06:48Z</time>
      </trkpt>
      <trkpt lat="41.79397" lon="9.2605">
        <ele>1058.738</ele>
        <time>2015-07-06T13:08:21Z</time>
      </trkpt>
      <trkpt lat="41.79402" lon="9.2605">
        <ele>1059.208</ele>
        <time>2015-07-06T13:11:03Z</time>
      </trkpt>
      <trkpt lat="41.79403" lon="9.26046">
        <ele>1059.375</ele>
        <time>2015-07-06T13:11:26Z</time>
      </trkpt>
      <trkpt lat="41.79403" lon="9.26044">
        <ele>1060.26</ele>
        <time>2015-07-06T13:12:36Z</time>
      </trkpt>
      <trkpt lat="41.79402" lon="9.26044">
        <ele>1053.529</ele>
        <time>2015-07-06T13:12:43Z</time>
      </trkpt>
      <trkpt lat="41.79401" lon="9.26044">
        <ele>1058.674</ele>
        <time>2015-07-06T13:12:44Z</time>
      </trkpt>
      <trkpt lat="41.79401" lon="9.26043">
        <ele>1067.401</ele>
        <time>2015-07-06T13:12:45Z</time>
      </trkpt>
      <trkpt lat="41.79401" lon="9.26043">
        <ele>1059.922</ele>
        <time>2015-07-06T13:12:46Z</time>
      </trkpt>
      <trkpt lat="41.794" lon="9.26041">
        <ele>1059.476</ele>
        <time>2015-07-06T13:12:51Z</time>
      </trkpt>
      <trkpt lat="41.79401" lon="9.26044">
        <ele>1059.973</ele>
        <time>2015-07-06T13:13:23Z</time>
      </trkpt>
    </trkseg>
  </trk>
</gpx>